Time,TemperatureF,DewpointF,PressureIn,WindDirection,WindDirectionDegrees,WindSpeedMPH,WindSpeedGustMPH,Humidity,HourlyPrecipIn,Conditions,Clouds,dailyrainin,SoftwareType,DateUTC
2013-02-13 00:00:00,33.9,29.0,30.13,SW,222,0.0,0.0,82,0.00,CLR,,0.00,WeatherDisplay:10.37,2013-02-13 00:00:00,
2013-02-13 00:05:00,33.9,29.3,30.13,SW,222,0.0,0.0,83,0.00,CLR,,0.00,WeatherDisplay:10.37,2013-02-13 00:05:00,
2013-02-13 00:10:00,33.8,29.2,30.13,SW,222,0.0,0.0,83,0.00,CLR,,0.00,WeatherDisplay:10.37,2013-02-13 00:10:00,
2013-02-13 00:15:00,33.7,29.1,30.13,SW,222,0.0,0.0,83,0.00,CLR,,0.00,WeatherDisplay:10.37,2013-02-13 00:15:00,
2013-02-13 00:20:00,33.7,29.1,30.13,SW,222,0.0,0.0,83,0.00,CLR,,0.00,WeatherDisplay:10.37,2013-02-13 00:20:00,
2013-02-13 00:25:00,33.6,29.3,30.14,SW,222,0.0,0.0,84,0.00,CLR,,0.00,WeatherDisplay:10.37,2013-02-13 00:25:00,
2013-02-13 00:30:00,33.6,29.3,30.14,SW,223,0.0,0.0,84,0.00,CLR,,0.00,WeatherDisplay:10.37,2013-02-13 00:30:00,
2013-02-13 00:35:00,33.5,29.2,30.14,SW,223,0.0,0.0,84,0.00,CLR,,0.00,WeatherDisplay:10.37,2013-02-13 00:35:00,
2013-02-13 00:40:00,33.5,29.5,30.13,SW,222,0.0,0.0,85,0.00,CLR,,0.00,WeatherDisplay:10.37,2013-02-13 00:40:00,
2013-02-13 00:45:00,33.5,29.5,30.13,SW,222,0.0,0.0,85,0.00,CLR,,0.00,WeatherDisplay:10.37,2013-02-13 00:45:00,
2013-02-13 00:50:00,33.4,29.4,30.13,SW,222,0.0,0.0,85,0.00,CLR,,0.00,WeatherDisplay:10.37,2013-02-13 00:50:00,
2013-02-13 00:55:00,33.4,29.7,30.13,SW,223,0.0,0.0,86,0.00,CLR,,0.00,WeatherDisplay:10.37,2013-02-13 00:55:00,
2013-02-13 01:00:00,33.4,29.7,30.13,SW,222,0.0,0.0,86,0.00,CLR,,0.00,WeatherDisplay:10.37,2013-02-13 01:00:00,
2013-02-13 01:05:00,33.3,29.6,30.14,SW,222,0.0,0.0,86,0.00,CLR,,0.00,WeatherDisplay:10.37,2013-02-13 01:05:00,
2013-02-13 01:10:00,33.3,29.6,30.14,SW,223,0.0,0.0,86,0.00,CLR,,0.00,WeatherDisplay:10.37,2013-02-13 01:10:00,
2013-02-13 01:15:00,33.2,29.8,30.14,SW,222,0.0,0.0,87,0.00,CLR,,0.00,WeatherDisplay:10.37,2013-02-13 01:15:00,
2013-02-13 01:20:00,33.2,29.8,30.14,SW,222,0.0,0.0,87,0.00,CLR,,0.00,WeatherDisplay:10.37,2013-02-13 01:20:00,
2013-02-13 01:25:00,33.2,29.8,30.14,SW,223,0.0,0.0,87,0.00,CLR,,0.00,WeatherDisplay:10.37,2013-02-13 01:25:00,
2013-02-13 01:30:00,33.2,29.8,30.15,SW,222,0.0,0.0,87,0.00,CLR,,0.00,WeatherDisplay:10.37,2013-02-13 01:30:00,
2013-02-13 01:35:00,33.2,29.8,30.15,SW,222,0.0,0.0,87,0.00,CLR,,0.00,WeatherDisplay:10.37,2013-02-13 01:35:00,
2013-02-13 01:40:00,33.3,29.6,30.15,SW,222,0.0,0.0,86,0.00,CLR,,0.00,WeatherDisplay:10.37,2013-02-13 01:40:00,
2013-02-13 01:45:00,33.4,29.7,30.15,SW,222,0.0,0.0,86,0.00,CLR,,0.00,WeatherDisplay:10.37,2013-02-13 01:45:00,
2013-02-13 01:50:00,33.3,29.6,30.16,SW,222,0.0,0.0,86,0.00,CLR,,0.00,WeatherDisplay:10.37,2013-02-13 01:50:00,
2013-02-13 01:55:00,33.3,29.6,30.16,SW,222,0.0,0.0,86,0.00,CLR,,0.00,WeatherDisplay:10.37,2013-02-13 01:55:00,
2013-02-13 02:00:00,33.3,29.6,30.16,SW,222,0.0,0.0,86,0.00,CLR,,0.00,WeatherDisplay:10.37,2013-02-13 02:00:00,
2013-02-13 02:05:00,33.3,29.6,30.15,SW,222,0.0,0.0,86,0.00,CLR,,0.00,WeatherDisplay:10.37,2013-02-13 02:05:00,
2013-02-13 02:10:00,33.3,29.6,30.15,SW,222,0.0,0.0,86,0.00,CLR,,0.00,WeatherDisplay:10.37,2013-02-13 02:10:00,
2013-02-13 02:15:00,33.3,29.6,30.15,SW,222,0.0,0.0,86,0.00,CLR,,0.00,WeatherDisplay:10.37,2013-02-13 02:15:00,
2013-02-13 02:20:00,33.3,29.3,30.15,SSW,197,0.0,0.0,85,0.00,CLR,,0.00,WeatherDisplay:10.37,2013-02-13 02:20:00,
2013-02-13 02:25:00,33.5,29.5,30.14,SSW,204,0.0,0.0,85,0.00,CLR,,0.00,WeatherDisplay:10.37,2013-02-13 02:25:00,
2013-02-13 02:30:00,33.7,29.4,30.14,SSW,204,0.0,0.0,84,0.00,CLR,,0.00,WeatherDisplay:10.37,2013-02-13 02:30:00,
2013-02-13 02:35:00,33.8,29.5,30.14,ESE,113,1.0,1.0,84,0.00,CLR,,0.00,WeatherDisplay:10.37,2013-02-13 02:35:00,
2013-02-13 02:40:00,33.9,29.3,30.15,ESE,114,0.0,0.0,83,0.00,CLR,,0.00,WeatherDisplay:10.37,2013-02-13 02:40:00,
2013-02-13 02:45:00,34.0,29.4,30.15,SE,142,0.0,0.0,83,0.00,CLR,,0.00,WeatherDisplay:10.37,2013-02-13 02:45:00,
2013-02-13 02:50:00,34.1,29.2,30.15,SE,142,0.0,0.0,82,0.00,CLR,,0.00,WeatherDisplay:10.37,2013-02-13 02:50:00,
2013-02-13 02:55:00,34.1,29.2,30.15,SE,127,0.0,0.0,82,0.00,CLR,,0.00,WeatherDisplay:10.37,2013-02-13 02:55:00,
2013-02-13 03:00:00,34.1,29.2,30.15,SE,127,0.0,0.0,82,0.00,CLR,,0.00,WeatherDisplay:10.37,2013-02-13 03:00:00,
2013-02-13 03:05:00,34.1,29.2,30.16,WSW,256,0.0,0.0,82,0.00,CLR,,0.00,WeatherDisplay:10.37,2013-02-13 03:05:00,
2013-02-13 03:10:00,34.1,29.2,30.15,WSW,255,0.0,0.0,82,0.00,CLR,,0.00,WeatherDisplay:10.37,2013-02-13 03:10:00,
2013-02-13 03:15:00,34.1,29.2,30.16,WSW,256,0.0,0.0,82,0.00,CLR,,0.00,WeatherDisplay:10.37,2013-02-13 03:15:00,
2013-02-13 03:20:00,34.1,29.2,30.15,SE,137,0.0,0.0,82,0.00,CLR,,0.00,WeatherDisplay:10.37,2013-02-13 03:20:00,
2013-02-13 03:25:00,34.1,29.2,30.15,SE,137,0.0,0.0,82,0.00,CLR,,0.00,WeatherDisplay:10.37,2013-02-13 03:25:00,
2013-02-13 03:30:00,34.1,29.2,30.15,SE,136,0.0,0.0,82,0.00,CLR,,0.00,WeatherDisplay:10.37,2013-02-13 03:30:00,
2013-02-13 03:35:00,34.1,29.2,30.15,SE,138,0.0,0.0,82,0.00,CLR,,0.00,WeatherDisplay:10.37,2013-02-13 03:35:00,
2013-02-13 03:40:00,34.0,29.4,30.15,SE,133,0.0,0.0,83,0.00,CLR,,0.00,WeatherDisplay:10.37,2013-02-13 03:40:00,
2013-02-13 03:45:00,34.0,29.1,30.15,SE,132,0.0,0.0,82,0.00,CLR,,0.00,WeatherDisplay:10.37,2013-02-13 03:45:00,
2013-02-13 03:50:00,34.0,29.1,30.15,SE,125,0.0,0.0,82,0.00,CLR,,0.00,WeatherDisplay:10.37,2013-02-13 03:50:00,
2013-02-13 03:55:00,34.0,29.1,30.15,SE,126,0.0,0.0,82,0.00,CLR,,0.00,WeatherDisplay:10.37,2013-02-13 03:55:00,
2013-02-13 04:00:00,33.9,29.0,30.16,SE,125,0.0,0.0,82,0.00,CLR,,0.00,WeatherDisplay:10.37,2013-02-13 04:00:00,
2013-02-13 04:05:00,33.9,29.3,30.16,SE,126,0.0,0.0,83,0.00,CLR,,0.00,WeatherDisplay:10.37,2013-02-13 04:05:00,
2013-02-13 04:10:00,33.8,29.2,30.16,SE,126,0.0,0.0,83,0.00,CLR,,0.00,WeatherDisplay:10.37,2013-02-13 04:10:00,
2013-02-13 04:15:00,33.8,29.2,30.16,SE,133,0.0,0.0,83,0.00,CLR,,0.00,WeatherDisplay:10.37,2013-02-13 04:15:00,
2013-02-13 04:20:00,33.8,29.2,30.16,SE,133,0.0,0.0,83,0.00,CLR,,0.00,WeatherDisplay:10.37,2013-02-13 04:20:00,
2013-02-13 04:25:00,33.8,29.2,30.17,SE,132,0.0,0.0,83,0.00,CLR,,0.00,WeatherDisplay:10.37,2013-02-13 04:25:00,
2013-02-13 04:30:00,33.8,29.2,30.17,SE,132,0.0,0.0,83,0.00,CLR,,0.00,WeatherDisplay:10.37,2013-02-13 04:30:00,
2013-02-13 04:35:00,33.8,29.2,30.17,SE,132,0.0,0.0,83,0.00,CLR,,0.00,WeatherDisplay:10.37,2013-02-13 04:35:00,
2013-02-13 04:40:00,33.8,29.5,30.17,SE,133,0.0,0.0,84,0.00,CLR,,0.00,WeatherDisplay:10.37,2013-02-13 04:40:00,
2013-02-13 04:45:00,33.7,29.4,30.17,SSE,167,0.0,0.0,84,0.00,CLR,,0.00,WeatherDisplay:10.37,2013-02-13 04:45:00,
2013-02-13 04:50:00,33.7,29.4,30.17,SSE,167,0.0,0.0,84,0.00,CLR,,0.00,WeatherDisplay:10.37,2013-02-13 04:50:00,
2013-02-13 04:55:00,33.7,29.4,30.16,SSE,153,0.0,0.0,84,0.00,CLR,,0.00,WeatherDisplay:10.37,2013-02-13 04:55:00,
2013-02-13 05:00:00,33.8,29.5,30.16,SSE,165,0.0,0.1,84,0.00,CLR,,0.00,WeatherDisplay:10.37,2013-02-13 05:00:00,
2013-02-13 05:05:00,33.9,29.6,30.15,SSE,155,1.1,1.1,84,0.00,CLR,,0.00,WeatherDisplay:10.37,2013-02-13 05:05:00,
2013-02-13 05:10:00,33.9,29.6,30.15,ENE,77,1.1,1.1,84,0.00,CLR,,0.00,WeatherDisplay:10.37,2013-02-13 05:10:00,
2013-02-13 05:15:00,33.9,29.3,30.15,ENE,72,0.0,0.0,83,0.00,CLR,,0.00,WeatherDisplay:10.37,2013-02-13 05:15:00,
2013-02-13 05:20:00,33.9,29.3,30.15,SSE,152,0.0,0.0,83,0.00,CLR,,0.00,WeatherDisplay:10.37,2013-02-13 05:20:00,
2013-02-13 05:25:00,33.9,29.3,30.15,SE,136,1.1,1.1,83,0.00,CLR,,0.00,WeatherDisplay:10.37,2013-02-13 05:25:00,
2013-02-13 05:30:00,33.9,29.3,30.15,SE,127,2.3,2.3,83,0.00,CLR,,0.00,WeatherDisplay:10.37,2013-02-13 05:30:00,
2013-02-13 05:35:00,34.0,29.1,30.15,SE,134,3.5,3.5,82,0.00,CLR,,0.00,WeatherDisplay:10.37,2013-02-13 05:35:00,
2013-02-13 05:40:00,34.0,29.1,30.15,WNW,283,1.1,0.0,82,0.00,CLR,,0.00,WeatherDisplay:10.37,2013-02-13 05:40:00,
2013-02-13 05:45:00,34.0,29.4,30.16,NE,55,2.3,2.3,83,0.00,CLR,,0.00,WeatherDisplay:10.37,2013-02-13 05:45:00,
2013-02-13 05:50:00,34.0,29.1,30.16,ESE,113,2.3,2.3,82,0.00,CLR,,0.00,WeatherDisplay:10.37,2013-02-13 05:50:00,
2013-02-13 05:55:00,34.0,29.1,30.16,SSE,148,1.1,0.0,82,0.00,CLR,,0.00,WeatherDisplay:10.37,2013-02-13 05:55:00,
2013-02-13 06:00:00,33.9,29.0,30.16,ENE,76,1.1,1.1,82,0.00,CLR,,0.00,WeatherDisplay:10.37,2013-02-13 06:00:00,
2013-02-13 06:05:00,34.0,29.1,30.17,ENE,59,0.0,0.0,82,0.00,CLR,,0.00,WeatherDisplay:10.37,2013-02-13 06:05:00,
2013-02-13 06:10:00,33.9,29.3,30.16,SSW,194,3.5,3.5,83,0.00,CLR,,0.00,WeatherDisplay:10.37,2013-02-13 06:10:00,
2013-02-13 06:15:00,33.9,29.3,30.17,ESE,119,3.5,3.5,83,0.00,CLR,,0.00,WeatherDisplay:10.37,2013-02-13 06:15:00,
2013-02-13 06:20:00,33.9,29.3,30.17,ESE,118,0.0,0.0,83,0.00,CLR,,0.00,WeatherDisplay:10.37,2013-02-13 06:20:00,
2013-02-13 06:25:00,33.8,29.5,30.17,ESE,118,0.0,0.0,84,0.00,CLR,,0.00,WeatherDisplay:10.37,2013-02-13 06:25:00,
2013-02-13 06:30:00,33.7,29.4,30.17,ESE,118,0.0,0.0,84,0.00,CLR,,0.00,WeatherDisplay:10.37,2013-02-13 06:30:00,
2013-02-13 06:35:00,33.7,29.4,30.17,ESE,112,2.3,2.3,84,0.00,CLR,,0.00,WeatherDisplay:10.37,2013-02-13 06:35:00,
2013-02-13 06:40:00,33.6,29.3,30.17,ESE,111,0.0,0.0,84,0.00,CLR,,0.00,WeatherDisplay:10.37,2013-02-13 06:40:00,
2013-02-13 06:45:00,33.6,29.6,30.17,East,91,3.5,3.5,85,0.00,CLR,,0.00,WeatherDisplay:10.37,2013-02-13 06:45:00,
2013-02-13 06:50:00,33.6,29.6,30.17,ENE,63,0.0,0.0,85,0.00,CLR,,0.00,WeatherDisplay:10.37,2013-02-13 06:50:00,
2013-02-13 06:55:00,33.6,29.6,30.18,East,79,2.3,2.3,85,0.00,CLR,,0.00,WeatherDisplay:10.37,2013-02-13 06:55:00,
2013-02-13 07:00:00,33.6,29.6,30.17,East,79,0.0,0.0,85,0.00,CLR,,0.00,WeatherDisplay:10.37,2013-02-13 07:00:00,
2013-02-13 07:05:00,33.5,29.5,30.18,SSW,205,1.0,0.0,85,0.00,CLR,,0.00,WeatherDisplay:10.37,2013-02-13 07:05:00,
2013-02-13 07:10:00,33.5,29.5,30.18,SE,141,2.3,2.3,85,0.00,CLR,,0.00,WeatherDisplay:10.37,2013-02-13 07:10:00,
2013-02-13 07:15:00,33.4,29.4,30.17,East,100,2.3,2.3,85,0.00,CLR,,0.00,WeatherDisplay:10.37,2013-02-13 07:15:00,
2013-02-13 07:20:00,33.4,29.4,30.17,NE,43,2.3,2.3,85,0.00,CLR,,0.00,WeatherDisplay:10.37,2013-02-13 07:20:00,
2013-02-13 07:25:00,33.4,29.4,30.17,ENE,67,2.3,2.3,85,0.00,CLR,,0.00,WeatherDisplay:10.37,2013-02-13 07:25:00,
2013-02-13 07:30:00,33.4,29.4,30.18,NW,326,2.3,2.3,85,0.00,CLR,,0.00,WeatherDisplay:10.37,2013-02-13 07:30:00,
2013-02-13 07:35:00,33.5,29.5,30.18,SE,127,2.3,2.3,85,0.00,CLR,,0.00,WeatherDisplay:10.37,2013-02-13 07:35:00,
2013-02-13 07:40:00,33.5,29.5,30.18,ESE,115,1.1,1.1,85,0.00,CLR,,0.00,WeatherDisplay:10.37,2013-02-13 07:40:00,
2013-02-13 07:45:00,33.6,29.3,30.18,East,101,2.3,2.3,84,0.00,CLR,,0.00,WeatherDisplay:10.37,2013-02-13 07:45:00,
2013-02-13 07:50:00,33.7,29.4,30.18,ESE,110,2.3,2.3,84,0.00,CLR,,0.00,WeatherDisplay:10.37,2013-02-13 07:50:00,
2013-02-13 07:55:00,33.7,29.1,30.18,SW,233,2.3,2.3,83,0.00,CLR,,0.00,WeatherDisplay:10.37,2013-02-13 07:55:00,
2013-02-13 08:00:00,33.9,29.3,30.18,East,89,2.3,2.3,83,0.00,CLR,,0.00,WeatherDisplay:10.37,2013-02-13 08:00:00,
2013-02-13 08:05:00,34.0,29.4,30.19,SSE,153,5.0,5.0,83,0.00,CLR,,0.00,WeatherDisplay:10.37,2013-02-13 08:05:00,
2013-02-13 08:10:00,34.0,29.1,30.19,ESE,121,2.3,2.3,82,0.00,CLR,,0.00,WeatherDisplay:10.37,2013-02-13 08:10:00,
2013-02-13 08:15:00,34.1,29.2,30.19,ESE,106,1.0,1.0,82,0.00,CLR,,0.00,WeatherDisplay:10.37,2013-02-13 08:15:00,
2013-02-13 08:20:00,34.2,29.0,30.19,ENE,68,3.5,3.5,81,0.00,CLR,,0.00,WeatherDisplay:10.37,2013-02-13 08:20:00,
2013-02-13 08:25:00,34.4,29.2,30.19,SE,131,2.3,2.3,81,0.00,CLR,,0.00,WeatherDisplay:10.37,2013-02-13 08:25:00,
2013-02-13 08:30:00,34.5,29.3,30.19,ENE,73,2.3,2.3,81,0.00,CLR,,0.00,WeatherDisplay:10.37,2013-02-13 08:30:00,
2013-02-13 08:35:00,34.5,29.0,30.19,North,354,3.5,3.5,80,0.00,CLR,,0.00,WeatherDisplay:10.37,2013-02-13 08:35:00,
2013-02-13 08:40:00,34.7,28.9,30.19,West,277,3.5,3.5,79,0.00,CLR,,0.00,WeatherDisplay:10.37,2013-02-13 08:40:00,
2013-02-13 08:45:00,34.8,29.0,30.19,East,99,2.3,2.3,79,0.00,CLR,,0.00,WeatherDisplay:10.37,2013-02-13 08:45:00,
2013-02-13 08:50:00,34.8,28.6,30.19,ESE,104,2.3,2.3,78,0.00,CLR,,0.00,WeatherDisplay:10.37,2013-02-13 08:50:00,
2013-02-13 08:55:00,34.9,28.4,30.20,WNW,302,3.5,3.5,77,0.00,CLR,,0.00,WeatherDisplay:10.37,2013-02-13 08:55:00,
2013-02-13 09:00:00,35.0,28.2,30.20,ESE,105,3.5,3.5,76,0.00,CLR,,0.00,WeatherDisplay:10.37,2013-02-13 09:00:00,
2013-02-13 09:05:00,35.0,27.9,30.19,East,96,4.6,4.6,75,0.00,CLR,,0.00,WeatherDisplay:10.37,2013-02-13 09:05:00,
2013-02-13 09:10:00,35.0,27.5,30.19,NE,56,5.8,5.8,74,0.00,CLR,,0.00,WeatherDisplay:10.37,2013-02-13 09:10:00,
2013-02-13 09:15:00,35.0,27.2,30.19,ESE,103,2.3,2.3,73,0.00,CLR,,0.00,WeatherDisplay:10.37,2013-02-13 09:15:00,
2013-02-13 09:20:00,35.1,27.0,30.19,SE,125,3.5,3.5,72,0.00,CLR,,0.00,WeatherDisplay:10.37,2013-02-13 09:20:00,
2013-02-13 09:25:00,35.1,26.6,30.19,East,85,1.1,1.1,71,0.00,CLR,,0.00,WeatherDisplay:10.37,2013-02-13 09:25:00,
2013-02-13 09:30:00,35.2,26.4,30.19,WSW,240,3.5,3.5,70,0.00,CLR,,0.00,WeatherDisplay:10.37,2013-02-13 09:30:00,
2013-02-13 09:35:00,35.2,25.3,30.19,SW,235,8.1,8.1,67,0.00,CLR,,0.00,WeatherDisplay:10.37,2013-02-13 09:35:00,
2013-02-13 09:40:00,35.2,25.0,30.19,ENE,70,7.0,7.0,66,0.00,CLR,,0.00,WeatherDisplay:10.37,2013-02-13 09:40:00,
2013-02-13 09:45:00,35.1,24.9,30.19,East,98,8.1,8.1,66,0.00,CLR,,0.00,WeatherDisplay:10.37,2013-02-13 09:45:00,
2013-02-13 09:50:00,35.1,24.9,30.19,East,79,6.0,6.0,66,0.00,CLR,,0.00,WeatherDisplay:10.37,2013-02-13 09:50:00,
2013-02-13 09:55:00,35.1,25.2,30.19,ENE,68,2.3,2.3,67,0.00,CLR,,0.00,WeatherDisplay:10.37,2013-02-13 09:55:00,
2013-02-13 10:00:00,35.1,24.9,30.19,SE,124,5.8,5.8,66,0.00,CLR,,0.00,WeatherDisplay:10.37,2013-02-13 10:00:00,
2013-02-13 10:05:00,35.1,25.2,30.19,NE,55,6.9,6.9,67,0.00,CLR,,0.00,WeatherDisplay:10.37,2013-02-13 10:05:00,
2013-02-13 10:10:00,35.2,25.7,30.19,ENE,76,3.5,3.5,68,0.00,CLR,,0.00,WeatherDisplay:10.37,2013-02-13 10:10:00,
2013-02-13 10:15:00,35.2,26.0,30.19,NE,40,5.8,5.8,69,0.00,CLR,,0.00,WeatherDisplay:10.37,2013-02-13 10:15:00,
2013-02-13 10:20:00,35.2,26.0,30.19,SE,146,5.8,5.8,69,0.00,CLR,,0.00,WeatherDisplay:10.37,2013-02-13 10:20:00,
2013-02-13 10:25:00,35.1,25.9,30.20,ESE,113,8.0,8.0,69,0.00,CLR,,0.00,WeatherDisplay:10.37,2013-02-13 10:25:00,
2013-02-13 10:30:00,35.2,26.4,30.19,SSE,153,4.6,4.6,70,0.00,CLR,,0.00,WeatherDisplay:10.37,2013-02-13 10:30:00,
2013-02-13 10:35:00,35.3,27.2,30.20,East,94,1.1,1.1,72,0.00,CLR,,0.00,WeatherDisplay:10.37,2013-02-13 10:35:00,
2013-02-13 10:40:00,35.4,26.9,30.20,ESE,105,5.8,5.8,71,0.00,CLR,,0.00,WeatherDisplay:10.37,2013-02-13 10:40:00,
2013-02-13 10:45:00,35.5,27.4,30.20,SSW,200,3.5,3.5,72,0.00,CLR,,0.00,WeatherDisplay:10.37,2013-02-13 10:45:00,
2013-02-13 10:50:00,35.6,27.5,30.20,East,94,3.5,3.5,72,0.00,CLR,,0.00,WeatherDisplay:10.37,2013-02-13 10:50:00,
2013-02-13 10:55:00,35.6,27.1,30.20,East,91,3.5,3.5,71,0.00,CLR,,0.00,WeatherDisplay:10.37,2013-02-13 10:55:00,
2013-02-13 11:00:00,35.7,27.2,30.20,SE,131,4.6,4.6,71,0.00,CLR,,0.00,WeatherDisplay:10.37,2013-02-13 11:00:00,
2013-02-13 11:05:00,35.7,27.6,30.20,ENE,75,3.5,3.5,72,0.00,CLR,,0.00,WeatherDisplay:10.37,2013-02-13 11:05:00,
2013-02-13 11:10:00,35.8,28.0,30.20,ENE,76,3.5,3.5,73,0.00,CLR,,0.00,WeatherDisplay:10.37,2013-02-13 11:10:00,
2013-02-13 11:15:00,35.9,27.7,30.20,SE,145,5.8,5.8,72,0.00,CLR,,0.00,WeatherDisplay:10.37,2013-02-13 11:15:00,
2013-02-13 11:20:00,36.0,27.8,30.20,NE,44,3.5,3.5,72,0.00,CLR,,0.00,WeatherDisplay:10.37,2013-02-13 11:20:00,
2013-02-13 11:25:00,36.0,27.8,30.20,East,87,3.5,3.5,72,0.00,CLR,,0.00,WeatherDisplay:10.37,2013-02-13 11:25:00,
2013-02-13 11:30:00,36.1,27.9,30.20,ESE,122,4.6,4.6,72,0.00,CLR,,0.00,WeatherDisplay:10.37,2013-02-13 11:30:00,
2013-02-13 11:35:00,36.1,28.3,30.19,East,80,3.5,3.5,73,0.00,CLR,,0.00,WeatherDisplay:10.37,2013-02-13 11:35:00,
2013-02-13 11:40:00,36.3,28.1,30.19,ESE,120,3.0,3.0,72,0.00,CLR,,0.00,WeatherDisplay:10.37,2013-02-13 11:40:00,
2013-02-13 11:45:00,36.5,28.7,30.19,SSE,158,5.8,5.8,73,0.00,CLR,,0.00,WeatherDisplay:10.37,2013-02-13 11:45:00,
2013-02-13 11:50:00,36.6,28.8,30.19,ESE,103,3.5,3.5,73,0.00,CLR,,0.00,WeatherDisplay:10.37,2013-02-13 11:50:00,
2013-02-13 11:55:00,36.7,28.9,30.19,ENE,65,1.1,1.1,73,0.00,CLR,,0.00,WeatherDisplay:10.37,2013-02-13 11:55:00,
2013-02-13 12:00:00,36.8,29.0,30.19,East,101,2.3,2.3,73,0.00,CLR,,0.00,WeatherDisplay:10.37,2013-02-13 12:00:00,
2013-02-13 12:05:00,36.9,29.1,30.18,East,81,3.5,3.5,73,0.00,CLR,,0.00,WeatherDisplay:10.37,2013-02-13 12:05:00,
2013-02-13 12:10:00,36.9,29.1,30.18,SSW,195,2.3,2.3,73,0.00,CLR,,0.00,WeatherDisplay:10.37,2013-02-13 12:10:00,
2013-02-13 12:15:00,37.1,29.2,30.18,ESE,117,3.5,3.5,73,0.00,CLR,,0.00,WeatherDisplay:10.37,2013-02-13 12:15:00,
2013-02-13 12:20:00,37.1,28.9,30.18,East,98,6.0,6.0,72,0.00,CLR,,0.00,WeatherDisplay:10.37,2013-02-13 12:20:00,
2013-02-13 12:25:00,37.0,28.8,30.18,ENE,72,2.3,2.3,72,0.00,CLR,,0.00,WeatherDisplay:10.37,2013-02-13 12:25:00,
2013-02-13 12:30:00,37.2,29.3,30.18,ENE,62,3.5,3.5,73,0.00,CLR,,0.00,WeatherDisplay:10.37,2013-02-13 12:30:00,
2013-02-13 12:35:00,37.2,29.0,30.18,East,86,2.3,2.3,72,0.00,CLR,,0.00,WeatherDisplay:10.37,2013-02-13 12:35:00,
2013-02-13 12:40:00,37.3,28.8,30.18,East,86,5.8,5.8,71,0.00,CLR,,0.00,WeatherDisplay:10.37,2013-02-13 12:40:00,
2013-02-13 12:45:00,37.2,29.0,30.18,East,100,3.5,3.5,72,0.00,CLR,,0.00,WeatherDisplay:10.37,2013-02-13 12:45:00,
2013-02-13 12:50:00,37.4,29.5,30.17,ESE,102,1.1,1.1,73,0.00,CLR,,0.00,WeatherDisplay:10.37,2013-02-13 12:50:00,
2013-02-13 12:55:00,37.5,29.6,30.17,ENE,70,2.0,2.0,73,0.00,CLR,,0.00,WeatherDisplay:10.37,2013-02-13 12:55:00,
2013-02-13 13:00:00,37.7,29.8,30.17,ENE,66,2.3,2.3,73,0.00,CLR,,0.00,WeatherDisplay:10.37,2013-02-13 13:00:00,
2013-02-13 13:05:00,37.7,29.5,30.17,WSW,239,6.9,6.9,72,0.00,CLR,,0.00,WeatherDisplay:10.37,2013-02-13 13:05:00,
2013-02-13 13:10:00,37.6,29.4,30.17,ESE,111,2.3,2.3,72,0.00,CLR,,0.00,WeatherDisplay:10.37,2013-02-13 13:10:00,
2013-02-13 13:15:00,37.6,29.4,30.17,East,87,5.8,5.8,72,0.00,CLR,,0.00,WeatherDisplay:10.37,2013-02-13 13:15:00,
2013-02-13 13:20:00,37.5,29.6,30.17,ENE,63,2.3,2.3,73,0.00,CLR,,0.00,WeatherDisplay:10.37,2013-02-13 13:20:00,
2013-02-13 13:25:00,37.5,30.0,30.16,NE,49,2.3,2.3,74,0.00,CLR,,0.00,WeatherDisplay:10.37,2013-02-13 13:25:00,
2013-02-13 13:30:00,37.4,29.9,30.16,East,81,7.0,7.0,74,0.00,CLR,,0.00,WeatherDisplay:10.37,2013-02-13 13:30:00,
2013-02-13 13:35:00,37.3,29.8,30.16,NW,316,3.5,3.5,74,0.00,CLR,,0.00,WeatherDisplay:10.37,2013-02-13 13:35:00,
2013-02-13 13:40:00,37.2,29.7,30.16,ESE,102,3.5,3.5,74,0.00,CLR,,0.00,WeatherDisplay:10.37,2013-02-13 13:40:00,
2013-02-13 13:45:00,37.2,30.0,30.16,ESE,115,3.5,3.5,75,0.00,CLR,,0.00,WeatherDisplay:10.37,2013-02-13 13:45:00,
2013-02-13 13:50:00,37.2,30.0,30.16,SE,133,3.5,3.5,75,0.00,CLR,,0.00,WeatherDisplay:10.37,2013-02-13 13:50:00,
2013-02-13 13:55:00,37.1,29.9,30.16,SE,133,5.8,5.8,75,0.00,CLR,,0.00,WeatherDisplay:10.37,2013-02-13 13:55:00,
2013-02-13 14:00:00,36.9,29.7,30.16,ENE,75,3.5,3.5,75,0.00,CLR,,0.00,WeatherDisplay:10.37,2013-02-13 14:00:00,
2013-02-13 14:05:00,36.9,30.0,30.16,NE,49,2.3,2.3,76,0.00,CLR,,0.00,WeatherDisplay:10.37,2013-02-13 14:05:00,
2013-02-13 14:10:00,36.8,29.9,30.16,East,82,2.3,2.3,76,0.00,CLR,,0.00,WeatherDisplay:10.37,2013-02-13 14:10:00,
2013-02-13 14:15:00,36.7,29.8,30.16,WSW,253,3.5,3.5,76,0.00,CLR,,0.00,WeatherDisplay:10.37,2013-02-13 14:15:00,
2013-02-13 14:20:00,36.7,29.8,30.16,ENE,60,3.5,3.5,76,0.00,CLR,,0.00,WeatherDisplay:10.37,2013-02-13 14:20:00,
2013-02-13 14:25:00,36.7,29.8,30.16,ESE,103,2.3,2.3,76,0.00,CLR,,0.00,WeatherDisplay:10.37,2013-02-13 14:25:00,
2013-02-13 14:30:00,36.7,30.2,30.16,West,260,2.3,2.3,77,0.00,CLR,,0.00,WeatherDisplay:10.37,2013-02-13 14:30:00,
2013-02-13 14:35:00,36.7,30.2,30.16,ENE,77,1.1,1.1,77,0.00,CLR,,0.00,WeatherDisplay:10.37,2013-02-13 14:35:00,
2013-02-13 14:40:00,36.7,29.8,30.16,NE,47,2.3,2.3,76,0.00,CLR,,0.00,WeatherDisplay:10.37,2013-02-13 14:40:00,
2013-02-13 14:45:00,36.6,30.1,30.17,NE,38,1.1,1.1,77,0.00,CLR,,0.00,WeatherDisplay:10.37,2013-02-13 14:45:00,
2013-02-13 14:50:00,36.5,29.7,30.16,East,89,3.5,3.5,76,0.00,CLR,,0.00,WeatherDisplay:10.37,2013-02-13 14:50:00,
2013-02-13 14:55:00,36.5,30.0,30.16,East,82,3.5,3.5,77,0.00,CLR,,0.00,WeatherDisplay:10.37,2013-02-13 14:55:00,
2013-02-13 15:00:00,36.4,30.2,30.16,ENE,63,1.1,0.0,78,0.00,CLR,,0.00,WeatherDisplay:10.37,2013-02-13 15:00:00,
2013-02-13 15:05:00,36.3,29.8,30.16,ENE,78,4.6,4.6,77,0.00,CLR,,0.00,WeatherDisplay:10.37,2013-02-13 15:05:00,
2013-02-13 15:10:00,36.3,29.8,30.16,ENE,68,3.5,3.5,77,0.00,CLR,,0.00,WeatherDisplay:10.37,2013-02-13 15:10:00,
2013-02-13 15:15:00,36.3,29.8,30.16,NE,49,2.3,2.3,77,0.00,CLR,,0.00,WeatherDisplay:10.37,2013-02-13 15:15:00,
2013-02-13 15:20:00,36.2,29.7,30.16,WNW,289,2.3,2.3,77,0.00,CLR,,0.00,WeatherDisplay:10.37,2013-02-13 15:20:00,
2013-02-13 15:25:00,36.2,29.7,30.15,SSW,192,2.3,2.3,77,0.00,CLR,,0.00,WeatherDisplay:10.37,2013-02-13 15:25:00,
2013-02-13 15:30:00,36.1,29.9,30.15,ESE,120,4.6,4.6,78,0.00,CLR,,0.00,WeatherDisplay:10.37,2013-02-13 15:30:00,
2013-02-13 15:35:00,36.1,29.9,30.15,ENE,73,2.3,2.3,78,0.00,CLR,,0.00,WeatherDisplay:10.37,2013-02-13 15:35:00,
2013-02-13 15:40:00,36.0,29.8,30.15,WSW,253,2.3,2.3,78,0.00,CLR,,0.00,WeatherDisplay:10.37,2013-02-13 15:40:00,
2013-02-13 15:45:00,36.0,29.8,30.15,NE,41,3.5,3.5,78,0.00,CLR,,0.00,WeatherDisplay:10.37,2013-02-13 15:45:00,
2013-02-13 15:50:00,35.9,29.7,30.15,NE,46,3.5,3.5,78,0.00,CLR,,0.00,WeatherDisplay:10.37,2013-02-13 15:50:00,
2013-02-13 15:55:00,35.8,29.6,30.15,ENE,64,3.5,3.5,78,0.00,CLR,,0.00,WeatherDisplay:10.37,2013-02-13 15:55:00,
2013-02-13 16:00:00,35.8,29.9,30.14,NE,37,3.5,3.5,79,0.00,CLR,,0.00,WeatherDisplay:10.37,2013-02-13 16:00:00,
2013-02-13 16:05:00,35.8,29.9,30.15,WNW,302,1.1,1.1,79,0.00,CLR,,0.00,WeatherDisplay:10.37,2013-02-13 16:05:00,
2013-02-13 16:10:00,35.7,29.5,30.15,ENE,65,3.5,3.5,78,0.00,CLR,,0.00,WeatherDisplay:10.37,2013-02-13 16:10:00,
2013-02-13 16:15:00,35.7,29.8,30.14,East,82,2.3,2.3,79,0.00,CLR,,0.00,WeatherDisplay:10.37,2013-02-13 16:15:00,
2013-02-13 16:20:00,35.7,29.8,30.14,NE,55,2.3,2.3,79,0.00,CLR,,0.00,WeatherDisplay:10.37,2013-02-13 16:20:00,
2013-02-13 16:25:00,35.7,29.8,30.14,NE,41,2.0,2.0,79,0.00,CLR,,0.00,WeatherDisplay:10.37,2013-02-13 16:25:00,
2013-02-13 16:30:00,35.6,29.7,30.14,ENE,76,1.1,1.1,79,0.00,CLR,,0.00,WeatherDisplay:10.37,2013-02-13 16:30:00,
2013-02-13 16:35:00,35.6,30.0,30.14,East,100,1.1,1.1,80,0.00,CLR,,0.00,WeatherDisplay:10.37,2013-02-13 16:35:00,
2013-02-13 16:40:00,35.6,29.7,30.14,ENE,78,3.5,3.5,79,0.00,CLR,,0.00,WeatherDisplay:10.37,2013-02-13 16:40:00,
2013-02-13 16:45:00,35.6,30.0,30.14,NNW,340,2.3,2.3,80,0.00,CLR,,0.00,WeatherDisplay:10.37,2013-02-13 16:45:00,
2013-02-13 16:50:00,35.6,30.0,30.14,ENE,75,2.3,2.3,80,0.00,CLR,,0.00,WeatherDisplay:10.37,2013-02-13 16:50:00,
2013-02-13 16:55:00,35.5,29.9,30.14,ENE,63,2.0,2.4,80,0.00,CLR,,0.00,WeatherDisplay:10.37,2013-02-13 16:55:00,
2013-02-13 17:00:00,35.5,29.9,30.14,NE,56,1.1,1.1,80,0.00,CLR,,0.00,WeatherDisplay:10.37,2013-02-13 17:00:00,
2013-02-13 17:05:00,35.3,30.4,30.13,East,93,3.5,3.5,82,0.00,CLR,,0.00,WeatherDisplay:10.37,2013-02-13 17:05:00,
2013-02-13 17:10:00,34.9,30.3,30.14,East,79,3.5,3.5,83,0.00,CLR,,0.00,WeatherDisplay:10.37,2013-02-13 17:10:00,
2013-02-13 17:15:00,34.6,30.6,30.13,East,86,1.1,1.7,85,0.00,CLR,,0.00,WeatherDisplay:10.37,2013-02-13 17:15:00,
2013-02-13 17:20:00,34.3,30.8,30.13,SSE,163,2.3,2.3,87,0.00,CLR,,0.00,WeatherDisplay:10.37,2013-02-13 17:20:00,
2013-02-13 17:25:00,34.1,30.6,30.13,NE,53,3.5,3.5,87,0.00,CLR,,0.00,WeatherDisplay:10.37,2013-02-13 17:25:00,
2013-02-13 17:30:00,34.0,30.8,30.13,NE,55,4.6,4.6,88,0.00,CLR,,0.00,WeatherDisplay:10.37,2013-02-13 17:30:00,
2013-02-13 17:35:00,34.0,30.8,30.13,ESE,113,5.8,5.8,88,0.00,CLR,,0.00,WeatherDisplay:10.37,2013-02-13 17:35:00,
2013-02-13 17:40:00,34.0,30.8,30.13,NNE,17,2.3,0.0,88,0.00,CLR,,0.00,WeatherDisplay:10.37,2013-02-13 17:40:00,
2013-02-13 17:45:00,34.0,30.8,30.13,ENE,75,3.5,3.5,88,0.00,CLR,,0.00,WeatherDisplay:10.37,2013-02-13 17:45:00,
2013-02-13 17:50:00,34.0,30.8,30.12,East,85,3.5,0.0,88,0.00,CLR,,0.00,WeatherDisplay:10.37,2013-02-13 17:50:00,
2013-02-13 17:55:00,34.1,30.9,30.12,ESE,104,2.3,2.3,88,0.00,CLR,,0.00,WeatherDisplay:10.37,2013-02-13 17:55:00,
2013-02-13 18:00:00,34.1,30.9,30.12,NNE,29,2.3,2.3,88,0.00,CLR,,0.00,WeatherDisplay:10.37,2013-02-13 18:00:00,
2013-02-13 18:05:00,34.2,30.7,30.12,ENE,77,2.3,2.3,87,0.00,CLR,,0.00,WeatherDisplay:10.37,2013-02-13 18:05:00,
2013-02-13 18:10:00,34.2,30.7,30.12,SE,127,3.5,3.5,87,0.00,CLR,,0.00,WeatherDisplay:10.37,2013-02-13 18:10:00,
2013-02-13 18:15:00,34.3,30.8,30.12,North,11,5.8,5.8,87,0.00,CLR,,0.00,WeatherDisplay:10.37,2013-02-13 18:15:00,
2013-02-13 18:20:00,34.3,30.8,30.11,NE,49,3.5,3.5,87,0.00,CLR,,0.00,WeatherDisplay:10.37,2013-02-13 18:20:00,
2013-02-13 18:25:00,34.4,30.9,30.11,East,93,2.3,2.3,87,0.00,CLR,,0.00,WeatherDisplay:10.37,2013-02-13 18:25:00,
2013-02-13 18:30:00,34.4,30.9,30.11,NW,324,3.5,3.5,87,0.00,CLR,,0.00,WeatherDisplay:10.37,2013-02-13 18:30:00,
2013-02-13 18:35:00,34.4,30.9,30.11,ESE,111,3.5,3.5,87,0.00,CLR,,0.00,WeatherDisplay:10.37,2013-02-13 18:35:00,
2013-02-13 18:40:00,34.4,30.9,30.11,NE,54,2.0,2.0,87,0.00,CLR,,0.00,WeatherDisplay:10.37,2013-02-13 18:40:00,
2013-02-13 18:45:00,34.5,31.3,30.10,East,90,2.3,2.3,88,0.00,CLR,,0.00,WeatherDisplay:10.37,2013-02-13 18:45:00,
2013-02-13 18:50:00,34.5,31.3,30.10,East,92,1.1,1.1,88,0.00,CLR,,0.00,WeatherDisplay:10.37,2013-02-13 18:50:00,
2013-02-13 18:55:00,34.6,31.4,30.10,North,351,3.5,3.5,88,0.00,CLR,,0.00,WeatherDisplay:10.37,2013-02-13 18:55:00,
2013-02-13 19:00:00,34.7,31.5,30.10,ENE,59,3.5,3.5,88,0.00,CLR,,0.00,WeatherDisplay:10.37,2013-02-13 19:00:00,
2013-02-13 19:05:00,34.7,31.5,30.10,ENE,58,3.5,3.5,88,0.00,CLR,,0.00,WeatherDisplay:10.37,2013-02-13 19:05:00,
2013-02-13 19:10:00,34.8,31.6,30.09,WNW,283,2.3,2.3,88,0.00,CLR,,0.00,WeatherDisplay:10.37,2013-02-13 19:10:00,
2013-02-13 19:15:00,34.9,31.7,30.10,NNE,28,1.1,1.4,88,0.00,CLR,,0.00,WeatherDisplay:10.37,2013-02-13 19:15:00,
2013-02-13 19:20:00,35.0,31.8,30.09,ENE,63,5.8,5.8,88,0.00,CLR,,0.00,WeatherDisplay:10.37,2013-02-13 19:20:00,
2013-02-13 19:25:00,35.0,31.8,30.09,ENE,77,3.5,3.5,88,0.00,CLR,,0.00,WeatherDisplay:10.37,2013-02-13 19:25:00,
2013-02-13 19:30:00,35.1,32.2,30.09,NE,36,1.1,1.1,89,0.00,CLR,,0.00,WeatherDisplay:10.37,2013-02-13 19:30:00,
2013-02-13 19:35:00,35.1,32.2,30.08,East,89,2.3,2.3,89,0.00,CLR,,0.00,WeatherDisplay:10.37,2013-02-13 19:35:00,
2013-02-13 19:40:00,35.2,32.3,30.08,North,7,2.3,2.3,89,0.00,CLR,,0.00,WeatherDisplay:10.37,2013-02-13 19:40:00,
2013-02-13 19:45:00,35.3,32.4,30.08,NE,55,2.3,2.3,89,0.00,CLR,,0.00,WeatherDisplay:10.37,2013-02-13 19:45:00,
2013-02-13 19:50:00,35.4,32.8,30.08,ENE,71,3.5,3.5,90,0.00,CLR,,0.00,WeatherDisplay:10.37,2013-02-13 19:50:00,
2013-02-13 19:55:00,35.5,32.9,30.08,WNW,295,3.5,3.5,90,0.00,CLR,,0.00,WeatherDisplay:10.37,2013-02-13 19:55:00,
2013-02-13 20:00:00,35.6,33.0,30.08,East,80,2.3,2.3,90,0.00,CLR,,0.00,WeatherDisplay:10.37,2013-02-13 20:00:00,
2013-02-13 20:05:00,35.7,33.1,30.08,SE,128,2.3,2.3,90,0.00,CLR,,0.00,WeatherDisplay:10.37,2013-02-13 20:05:00,
2013-02-13 20:10:00,35.8,33.2,30.08,East,89,3.5,3.5,90,0.00,CLR,,0.00,WeatherDisplay:10.37,2013-02-13 20:10:00,
2013-02-13 20:15:00,35.9,33.3,30.07,ESE,105,3.5,3.5,90,0.00,CLR,,0.00,WeatherDisplay:10.37,2013-02-13 20:15:00,
2013-02-13 20:20:00,35.9,33.3,30.07,ENE,65,3.5,3.5,90,0.00,CLR,,0.00,WeatherDisplay:10.37,2013-02-13 20:20:00,
2013-02-13 20:25:00,36.0,33.4,30.07,East,87,3.5,3.5,90,0.00,CLR,,0.00,WeatherDisplay:10.37,2013-02-13 20:25:00,
2013-02-13 20:30:00,36.1,33.5,30.07,NE,53,1.1,1.1,90,0.00,CLR,,0.00,WeatherDisplay:10.37,2013-02-13 20:30:00,
2013-02-13 20:35:00,36.1,33.5,30.07,ENE,72,3.5,3.5,90,0.00,CLR,,0.00,WeatherDisplay:10.37,2013-02-13 20:35:00,
2013-02-13 20:40:00,36.2,33.5,30.06,East,86,1.1,1.1,90,0.00,CLR,,0.00,WeatherDisplay:10.37,2013-02-13 20:40:00,
2013-02-13 20:45:00,36.3,33.6,30.06,SSE,162,5.0,5.0,90,0.00,CLR,,0.00,WeatherDisplay:10.37,2013-02-13 20:45:00,
2013-02-13 20:50:00,36.3,33.6,30.06,ENE,70,2.3,2.3,90,0.00,CLR,,0.00,WeatherDisplay:10.37,2013-02-13 20:50:00,
2013-02-13 20:55:00,36.4,33.7,30.06,ENE,67,3.5,3.5,90,0.00,CLR,,0.00,WeatherDisplay:10.37,2013-02-13 20:55:00,
2013-02-13 21:00:00,36.5,33.8,30.06,NE,47,2.3,2.3,90,0.00,CLR,,0.00,WeatherDisplay:10.37,2013-02-13 21:00:00,
2013-02-13 21:05:00,36.5,34.1,30.06,West,260,1.1,1.1,91,0.00,CLR,,0.00,WeatherDisplay:10.37,2013-02-13 21:05:00,
2013-02-13 21:10:00,36.6,34.2,30.06,East,91,3.5,3.5,91,0.00,CLR,,0.00,WeatherDisplay:10.37,2013-02-13 21:10:00,
2013-02-13 21:15:00,36.6,34.2,30.06,NE,52,3.0,3.0,91,0.00,CLR,,0.00,WeatherDisplay:10.37,2013-02-13 21:15:00,
2013-02-13 21:20:00,36.7,34.6,30.06,NE,39,2.3,2.3,92,0.00,CLR,,0.00,WeatherDisplay:10.37,2013-02-13 21:20:00,
2013-02-13 21:25:00,36.7,34.6,30.05,East,84,3.5,3.5,92,0.00,CLR,,0.00,WeatherDisplay:10.37,2013-02-13 21:25:00,
2013-02-13 21:30:00,36.8,35.0,30.05,ENE,77,3.0,3.0,93,0.01,RA,,0.01,WeatherDisplay:10.37,2013-02-13 21:30:00,
2013-02-13 21:35:00,36.8,35.0,30.05,NNE,18,2.3,2.3,93,0.01,RA,,0.01,WeatherDisplay:10.37,2013-02-13 21:35:00,
2013-02-13 21:40:00,36.8,35.2,30.05,ENE,61,2.3,2.3,94,0.01,,,0.01,WeatherDisplay:10.37,2013-02-13 21:40:00,
2013-02-13 21:45:00,36.9,35.3,30.04,SW,223,2.3,2.3,94,0.01,CLR,,0.01,WeatherDisplay:10.37,2013-02-13 21:45:00,
2013-02-13 21:50:00,36.9,35.3,30.04,NNW,332,3.0,3.0,94,0.01,CLR,,0.01,WeatherDisplay:10.37,2013-02-13 21:50:00,
2013-02-13 21:55:00,37.0,35.4,30.04,ESE,103,3.5,3.5,94,0.01,CLR,,0.01,WeatherDisplay:10.37,2013-02-13 21:55:00,
2013-02-13 22:00:00,37.1,35.5,30.03,NE,55,3.5,3.5,94,0.01,CLR,,0.01,WeatherDisplay:10.37,2013-02-13 22:00:00,
2013-02-13 22:05:00,37.2,35.6,30.03,East,84,3.5,3.5,94,0.01,CLR,,0.01,WeatherDisplay:10.37,2013-02-13 22:05:00,
2013-02-13 22:10:00,37.3,36.0,30.03,SE,145,2.3,2.3,95,0.01,CLR,,0.01,WeatherDisplay:10.37,2013-02-13 22:10:00,
2013-02-13 22:15:00,37.4,36.1,30.03,East,86,3.5,3.5,95,0.01,CLR,,0.01,WeatherDisplay:10.37,2013-02-13 22:15:00,
2013-02-13 22:20:00,37.5,36.2,30.03,ENE,68,3.5,3.5,95,0.01,CLR,,0.01,WeatherDisplay:10.37,2013-02-13 22:20:00,
2013-02-13 22:25:00,37.6,36.3,30.02,North,4,1.0,1.0,95,0.01,CLR,,0.01,WeatherDisplay:10.37,2013-02-13 22:25:00,
2013-02-13 22:30:00,37.7,36.4,30.02,NE,38,2.3,2.3,95,0.00,CLR,,0.01,WeatherDisplay:10.37,2013-02-13 22:30:00,
2013-02-13 22:35:00,37.8,36.5,30.02,ENE,72,2.3,2.3,95,0.00,CLR,,0.01,WeatherDisplay:10.37,2013-02-13 22:35:00,
2013-02-13 22:40:00,37.9,36.6,30.02,ENE,69,2.3,2.3,95,0.00,CLR,,0.01,WeatherDisplay:10.37,2013-02-13 22:40:00,
2013-02-13 22:45:00,38.0,36.7,30.02,East,91,1.1,1.1,95,0.00,CLR,,0.01,WeatherDisplay:10.37,2013-02-13 22:45:00,
2013-02-13 22:50:00,38.1,36.8,30.01,East,95,3.0,3.0,95,0.00,CLR,,0.01,WeatherDisplay:10.37,2013-02-13 22:50:00,
2013-02-13 22:55:00,38.3,37.0,30.01,ENE,58,2.3,2.3,95,0.00,CLR,,0.01,WeatherDisplay:10.37,2013-02-13 22:55:00,
2013-02-13 23:00:00,38.4,37.1,30.01,East,83,2.3,2.3,95,0.00,CLR,,0.01,WeatherDisplay:10.37,2013-02-13 23:00:00,
2013-02-13 23:05:00,38.5,37.2,30.00,ENE,59,3.5,3.5,95,0.00,CLR,,0.01,WeatherDisplay:10.37,2013-02-13 23:05:00,
2013-02-13 23:10:00,38.7,37.4,30.01,West,269,3.5,3.5,95,0.00,CLR,,0.01,WeatherDisplay:10.37,2013-02-13 23:10:00,
2013-02-13 23:15:00,39.0,37.7,30.00,SW,224,3.5,3.5,95,0.00,CLR,,0.01,WeatherDisplay:10.37,2013-02-13 23:15:00,
2013-02-13 23:20:00,39.1,37.8,30.00,ENE,61,2.3,2.3,95,0.00,CLR,,0.01,WeatherDisplay:10.37,2013-02-13 23:20:00,
2013-02-13 23:25:00,39.2,37.9,30.00,ENE,65,3.5,3.5,95,0.00,CLR,,0.01,WeatherDisplay:10.37,2013-02-13 23:25:00,
2013-02-13 23:30:00,39.4,38.1,29.99,NE,51,3.5,3.5,95,0.00,CLR,,0.01,WeatherDisplay:10.37,2013-02-13 23:30:00,
2013-02-13 23:35:00,39.5,38.2,29.99,NE,37,3.0,3.0,95,0.00,CLR,,0.01,WeatherDisplay:10.37,2013-02-13 23:35:00,
2013-02-13 23:40:00,39.6,38.3,29.98,ENE,74,5.8,5.8,95,0.00,CLR,,0.01,WeatherDisplay:10.37,2013-02-13 23:40:00,
2013-02-13 23:45:00,39.7,38.4,29.98,ENE,65,3.5,3.5,95,0.00,CLR,,0.01,WeatherDisplay:10.37,2013-02-13 23:45:00,
2013-02-13 23:50:00,39.8,38.5,29.98,NE,55,3.5,3.5,95,0.00,CLR,,0.01,WeatherDisplay:10.37,2013-02-13 23:50:00,
2013-02-13 23:55:00,39.9,38.3,29.98,East,82,3.5,3.5,94,0.00,CLR,,0.01,WeatherDisplay:10.37,2013-02-13 23:55:00,